Iota, Louisiana
Current Conditions -  °F | °C
As of 8:15 AM on Thursday 18 Dec 2014 (Local Time) from K3R7 Reporting Station
Overcast Overcast  
Wind Chill: 13°   Ceiling: 6000
Heat Index: 13°   Visibility: 10mi
Dew Point: 10°   Wind: 7mph
Humidity: 80%   Direction: 100°E
Pressure: 30.13"   Gusts: NA
Location:  30.33°N, 92.5°W
Report Text: K3R7 181415Z AUTO 10006KT 10SM SCT040 BKN060 OVC080 13/10 A3013 RMK AO2 T01280095
Loading
Personal Weather Stations






























Interactive Weather Map New forecast layout! Learn more

10-Day Weather Forecast

Advertisements
Track Severe Weather on mobile